< < Back
Terminal Aerodrome Forecast


Current Version              Previous Versions:   1  2  3  4  5  6  7  8  9  

Terminal Aerodrome Forecast

242
FTUS42 KMLB 042340
TAFMCO
TAF
KMCO 042340Z 0500/0524 11006KT P6SM VCSH SCT040 BKN100 OVC250
      TEMPO 0500/0502 VRB12G22KT TSRA BKN025CB
     FM050300 20004KT P6SM SCT120 BKN250
     FM050600 17003KT P6SM FEW120 SCT250
     FM051400 19005KT P6SM SCT025
     FM051900 19008KT P6SM VCTS SCT050CB SCT100 BKN150=



Latest METAR

407
SAUS70 KWBC 051500 RRG
MTRMCO
METAR KMCO 051453Z VRB04KT 10SM FEW030 FEW250 FEW300 31/24 A3019 RMK AO2
SLP220 CB DSNT S T03060239 51005


USA.gov is the U.S. government's official web portal to all federal, state and local government web resources and services.